createdAt,value
2022-10-10T00:01:55.510Z,78.24
2022-10-10T00:04:24.704Z,77.84
2022-10-10T00:06:53.836Z,77.75
2022-10-10T00:09:23.040Z,77.71
2022-10-10T00:11:52.175Z,77.67
2022-10-10T00:14:22.757Z,77.59
2022-10-10T00:16:52.106Z,77.69
2022-10-10T00:19:21.273Z,77.73
2022-10-10T00:21:50.398Z,77.57
2022-10-10T00:24:19.540Z,77.35
2022-10-10T00:26:49.955Z,77.56
2022-10-10T00:29:19.151Z,77.65
2022-10-10T00:31:49.717Z,77.44
2022-10-10T00:34:18.937Z,77.56
2022-10-10T00:36:48.078Z,77.75
2022-10-10T00:39:17.490Z,77.63
2022-10-10T00:41:46.680Z,77.48
2022-10-10T00:44:17.642Z,77.74
2022-10-10T00:46:48.174Z,77.93
2022-10-10T00:49:20.827Z,77.93
2022-10-10T00:51:56.418Z,77.60
2022-10-10T00:54:27.240Z,77.66
2022-10-10T00:57:01.993Z,78.13
2022-10-10T00:59:35.202Z,77.78
2022-10-10T01:02:06.900Z,77.71
2022-10-10T01:04:45.037Z,77.57
2022-10-10T01:07:19.056Z,77.61
2022-10-10T01:09:51.611Z,77.87
2022-10-10T01:12:28.121Z,77.36
2022-10-10T01:15:07.882Z,77.81
2022-10-10T01:17:46.731Z,77.77
2022-10-10T01:20:51.277Z,77.72
2022-10-10T01:24:12.506Z,77.86
2022-10-10T01:27:17.624Z,77.95
2022-10-10T01:29:53.496Z,77.89
2022-10-10T01:32:31.308Z,78.01
2022-10-10T01:35:29.733Z,77.90
2022-10-10T01:38:13.184Z,77.74
2022-10-10T01:40:51.060Z,77.93
2022-10-10T01:43:20.626Z,77.79
2022-10-10T01:45:54.039Z,77.33
2022-10-10T01:48:30.148Z,77.53
2022-10-10T01:51:32.121Z,77.49
2022-10-10T01:54:18.003Z,77.36
2022-10-10T01:57:01.207Z,77.32
2022-10-10T01:59:42.462Z,77.29
2022-10-10T02:02:21.691Z,76.99
2022-10-10T02:04:58.068Z,77.29
2022-10-10T02:07:34.600Z,77.60
2022-10-10T02:10:07.774Z,77.35
2022-10-10T02:12:38.525Z,77.43
2022-10-10T02:15:14.642Z,77.70
2022-10-10T02:17:49.938Z,77.81
2022-10-10T02:20:24.669Z,77.92
2022-10-10T02:22:56.464Z,77.72
2022-10-10T02:25:30.201Z,77.41
2022-10-10T02:28:09.274Z,77.84
2022-10-10T02:30:44.345Z,77.64
2022-10-10T02:33:20.612Z,77.47
2022-10-10T02:35:52.318Z,77.55
2022-10-10T02:38:21.768Z,77.16
2022-10-10T02:40:51.446Z,77.34
2022-10-10T02:43:21.437Z,77.07
2022-10-10T02:45:50.934Z,76.79
2022-10-10T02:48:21.459Z,76.86
2022-10-10T02:50:50.611Z,76.76
2022-10-10T02:53:19.848Z,77.07
2022-10-10T02:55:48.890Z,77.08
2022-10-10T02:58:18.290Z,76.88
2022-10-10T03:00:47.371Z,77.12
2022-10-10T03:03:16.528Z,77.03
2022-10-10T03:05:47.155Z,77.32
2022-10-10T03:08:16.298Z,77.67
2022-10-10T03:10:58.400Z,77.13
2022-10-10T03:13:27.799Z,76.99
2022-10-10T03:15:57.011Z,77.00
2022-10-10T03:18:26.196Z,76.83
2022-10-10T03:20:57.856Z,76.59
2022-10-10T03:23:27.563Z,76.46
2022-10-10T03:25:56.693Z,76.49
2022-10-10T03:28:25.874Z,76.59
2022-10-10T03:30:55.206Z,76.31
2022-10-10T03:33:24.442Z,76.31
2022-10-10T03:35:53.592Z,76.06
2022-10-10T03:38:24.139Z,75.97
2022-10-10T03:40:53.509Z,75.90
2022-10-10T03:43:22.622Z,76.10
2022-10-10T03:45:51.870Z,76.29
2022-10-10T03:48:21.049Z,76.25
2022-10-10T03:50:50.168Z,76.34
2022-10-10T03:53:19.596Z,76.27
2022-10-10T03:55:50.146Z,76.27
2022-10-10T03:58:23.634Z,76.64
2022-10-10T04:00:57.227Z,76.46
2022-10-10T04:03:27.036Z,76.37
2022-10-10T04:05:56.794Z,76.15
2022-10-10T04:08:26.113Z,76.17
2022-10-10T04:10:56.953Z,76.08
2022-10-10T04:13:27.621Z,76.17
2022-10-10T04:15:57.823Z,76.15
2022-10-10T04:18:27.233Z,76.36
2022-10-10T04:20:56.513Z,76.77
2022-10-10T04:23:25.644Z,76.65
2022-10-10T04:25:56.246Z,76.46
2022-10-10T04:28:25.612Z,76.60
2022-10-10T04:30:56.348Z,76.99
2022-10-10T04:33:25.740Z,77.05
2022-10-10T04:35:54.837Z,77.44
2022-10-10T04:38:24.010Z,77.63
2022-10-10T04:40:53.867Z,77.58
2022-10-10T04:43:24.359Z,77.70
2022-10-10T04:45:53.499Z,77.46
2022-10-10T04:48:22.593Z,77.46
2022-10-10T04:50:54.013Z,77.97
2022-10-10T04:53:23.827Z,78.14
2022-10-10T04:55:53.258Z,78.04
2022-10-10T04:58:23.875Z,78.02
2022-10-10T05:00:53.992Z,78.19
2022-10-10T05:03:24.624Z,78.40
2022-10-10T05:05:54.306Z,78.53
2022-10-10T05:08:23.729Z,78.89
2022-10-10T05:10:54.788Z,78.68
2022-10-10T05:13:25.336Z,78.85
2022-10-10T05:15:54.604Z,78.81
2022-10-10T05:18:23.705Z,79.03
2022-10-10T05:20:52.857Z,79.08
2022-10-10T05:23:21.986Z,78.74
2022-10-10T05:25:52.302Z,78.90
2022-10-10T05:28:21.579Z,79.02
2022-10-10T05:30:54.032Z,79.04
2022-10-10T05:33:23.296Z,78.65
2022-10-10T05:35:52.424Z,79.09
2022-10-10T05:38:21.511Z,79.51
2022-10-10T05:40:50.616Z,79.37
2022-10-10T05:43:19.779Z,79.17
2022-10-10T05:45:48.982Z,79.16
2022-10-10T05:48:19.935Z,79.31
2022-10-10T05:50:52.262Z,79.17
2022-10-10T05:53:22.757Z,79.10
2022-10-10T05:55:52.278Z,79.08
2022-10-10T05:58:21.453Z,78.70
2022-10-10T06:00:50.898Z,78.76
2022-10-10T06:03:21.612Z,79.66
2022-10-10T06:05:53.425Z,79.35
2022-10-10T06:08:22.549Z,79.71
2022-10-10T06:10:51.737Z,79.77
2022-10-10T06:13:24.535Z,79.65
2022-10-10T06:15:55.144Z,80.43
2022-10-10T06:18:25.720Z,79.90
2022-10-10T06:20:54.866Z,80.00
2022-10-10T06:23:23.998Z,80.39
2022-10-10T06:25:54.271Z,80.15
2022-10-10T06:28:24.144Z,80.65
2022-10-10T06:30:53.744Z,80.49
2022-10-10T06:33:24.386Z,80.56
2022-10-10T06:35:53.606Z,81.12
2022-10-10T06:38:22.771Z,80.79
2022-10-10T06:40:52.098Z,80.66
2022-10-10T06:43:21.265Z,80.57
2022-10-10T06:45:52.829Z,80.70
2022-10-10T06:48:21.961Z,80.59
2022-10-10T06:51:00.576Z,80.79
2022-10-10T06:53:30.112Z,80.85
2022-10-10T06:56:00.241Z,80.70
2022-10-10T06:58:31.074Z,80.68
2022-10-10T07:01:02.539Z,80.71
2022-10-10T07:03:32.847Z,81.20
2022-10-10T07:06:04.765Z,81.03
2022-10-10T07:08:34.710Z,80.53
2022-10-10T07:11:03.987Z,80.82
2022-10-10T07:13:33.340Z,80.68
2022-10-10T07:16:02.998Z,80.61
2022-10-10T07:18:32.704Z,80.52
2022-10-10T07:21:03.892Z,80.29
2022-10-10T07:23:33.069Z,80.35
2022-10-10T07:26:04.537Z,80.21
2022-10-10T07:28:34.161Z,80.29
2022-10-10T07:31:06.044Z,80.25
2022-10-10T07:33:37.793Z,80.08
2022-10-10T07:36:09.168Z,79.68
2022-10-10T07:38:38.978Z,79.37
2022-10-10T07:41:09.575Z,79.39
2022-10-10T07:43:38.800Z,79.39
2022-10-10T07:46:15.918Z,79.25
2022-10-10T07:48:45.162Z,79.58
2022-10-10T07:51:16.185Z,79.46
2022-10-10T07:53:45.400Z,79.36
2022-10-10T07:56:14.494Z,79.18
2022-10-10T07:58:43.585Z,79.06
2022-10-10T08:01:14.626Z,79.04
2022-10-10T08:03:44.396Z,78.92
2022-10-10T08:06:17.536Z,78.74
2022-10-10T08:08:51.646Z,79.21
2022-10-10T08:11:23.004Z,78.73
2022-10-10T08:13:52.804Z,78.69
2022-10-10T08:16:22.149Z,78.44
2022-10-10T08:18:51.559Z,78.16
2022-10-10T08:21:22.399Z,77.93
2022-10-10T08:23:51.593Z,77.82
2022-10-10T08:26:21.078Z,78.29
2022-10-10T08:28:50.295Z,77.20
2022-10-10T08:31:21.542Z,76.69
2022-10-10T08:33:52.460Z,76.58
2022-10-10T08:36:25.664Z,74.05
2022-10-10T08:38:59.401Z,71.95
2022-10-10T08:41:41.416Z,69.39
2022-10-10T08:44:21.243Z,70.53
2022-10-10T08:46:54.947Z,68.44
2022-10-10T08:49:32.394Z,65.71
2022-10-10T08:52:08.341Z,67.62
2022-10-10T08:54:39.250Z,67.22
2022-10-10T08:57:22.391Z,61.88
2022-10-10T08:59:55.989Z,62.94
2022-10-10T09:02:53.246Z,60.18
2022-10-10T09:05:35.853Z,60.25
2022-10-10T09:08:30.056Z,58.84
2022-10-10T09:11:07.178Z,57.91
2022-10-10T09:13:40.857Z,57.42
2022-10-10T09:16:22.959Z,58.84
2022-10-10T09:19:03.125Z,57.76
2022-10-10T09:21:37.055Z,58.84
2022-10-10T09:24:17.601Z,58.33
2022-10-10T09:26:52.650Z,58.90
2022-10-10T09:29:32.706Z,57.74
2022-10-10T09:32:10.675Z,59.21
2022-10-10T09:34:44.449Z,58.82
2022-10-10T09:37:29.454Z,59.49
2022-10-10T09:40:21.451Z,60.89
2022-10-10T09:42:51.008Z,61.88
2022-10-10T09:45:23.255Z,62.25
2022-10-10T09:47:56.955Z,61.98
2022-10-10T09:50:26.585Z,62.45
2022-10-10T09:52:57.616Z,62.21
2022-10-10T09:55:34.763Z,62.29
2022-10-10T09:58:25.305Z,62.54
2022-10-10T10:00:54.874Z,62.56
2022-10-10T10:03:25.051Z,62.44
2022-10-10T10:06:01.051Z,61.70
2022-10-10T10:08:33.440Z,61.79
2022-10-10T10:11:04.956Z,60.20
2022-10-10T10:13:37.417Z,58.00
2022-10-10T10:16:10.377Z,55.19
2022-10-10T10:18:42.780Z,54.27
2022-10-10T10:21:20.499Z,53.13
2022-10-10T10:23:59.777Z,53.28
2022-10-10T10:26:44.844Z,51.15
2022-10-10T10:29:30.640Z,50.02
2022-10-10T10:32:15.481Z,51.07
2022-10-10T10:35:03.582Z,52.07
2022-10-10T10:37:44.904Z,52.05
2022-10-10T10:40:32.593Z,52.10
2022-10-10T10:43:49.804Z,51.77
2022-10-10T10:46:37.747Z,49.88
2022-10-10T10:49:17.301Z,49.85
2022-10-10T10:52:19.324Z,45.89
2022-10-10T10:55:39.061Z,44.51
2022-10-10T11:01:55.921Z,44.79
2022-10-10T11:05:17.600Z,41.71
2022-10-10T11:08:03.691Z,39.95
2022-10-10T11:10:41.122Z,39.58
2022-10-10T11:13:19.971Z,41.26
2022-10-10T11:16:24.311Z,38.57
2022-10-10T11:18:55.533Z,39.92
2022-10-10T11:21:28.125Z,39.67
2022-10-10T11:24:04.014Z,39.54
2022-10-10T11:26:39.224Z,38.56
2022-10-10T11:29:16.975Z,38.77
2022-10-10T11:31:59.005Z,38.12
2022-10-10T11:34:34.040Z,37.53
2022-10-10T11:37:13.122Z,37.81
2022-10-10T11:39:52.643Z,36.60
2022-10-10T11:42:25.901Z,37.21
2022-10-10T11:45:02.878Z,37.86
2022-10-10T11:47:39.061Z,38.41
2022-10-10T11:50:18.297Z,38.55
2022-10-10T11:52:58.051Z,38.64
2022-10-10T11:55:37.938Z,38.12
2022-10-10T11:58:34.845Z,38.25
2022-10-10T12:01:16.465Z,39.83
2022-10-10T12:03:47.079Z,40.03
2022-10-10T12:06:26.788Z,40.52
2022-10-10T12:09:03.330Z,41.48
2022-10-10T12:11:38.142Z,42.72
2022-10-10T12:14:13.696Z,43.14
2022-10-10T12:16:43.149Z,43.36
2022-10-10T12:19:20.288Z,44.17
2022-10-10T12:22:01.828Z,44.23
2022-10-10T12:24:34.569Z,42.63
2022-10-10T12:27:42.465Z,41.10
2022-10-10T12:30:26.404Z,39.28
2022-10-10T12:32:56.106Z,38.91
2022-10-10T12:35:42.626Z,38.00
2022-10-10T12:38:23.017Z,38.18
2022-10-10T12:41:16.005Z,38.38
2022-10-10T12:43:52.482Z,38.09
2022-10-10T12:46:32.994Z,38.66
2022-10-10T12:49:19.220Z,39.65
2022-10-10T12:52:03.561Z,39.60
2022-10-10T12:54:40.301Z,39.22
2022-10-10T12:57:20.989Z,39.93
2022-10-10T12:59:50.404Z,40.01
2022-10-10T13:02:25.319Z,39.57
2022-10-10T13:05:00.479Z,39.64
2022-10-10T13:07:31.787Z,39.82
2022-10-10T13:10:11.576Z,40.65
2022-10-10T13:12:40.793Z,40.70
2022-10-10T13:15:21.230Z,40.10
2022-10-10T13:17:50.635Z,40.65
2022-10-10T13:20:32.955Z,41.25
2022-10-10T13:23:06.544Z,42.38
2022-10-10T13:25:39.129Z,43.05
2022-10-10T13:28:19.264Z,43.35
2022-10-10T13:30:49.836Z,43.55
2022-10-10T13:33:22.401Z,43.53
2022-10-10T13:35:51.958Z,42.80
2022-10-10T13:38:27.007Z,41.31
2022-10-10T13:40:56.599Z,39.51
2022-10-10T13:43:26.456Z,38.77
2022-10-10T13:46:00.597Z,38.33
2022-10-10T13:48:40.975Z,37.42
2022-10-10T13:51:12.650Z,37.05
2022-10-10T13:53:53.259Z,36.80
2022-10-10T13:56:28.265Z,36.89
2022-10-10T13:59:06.522Z,36.95
2022-10-10T14:01:39.969Z,36.90
2022-10-10T14:04:21.472Z,37.48
2022-10-10T14:07:00.206Z,38.63
2022-10-10T14:09:37.231Z,40.42
2022-10-10T14:12:09.637Z,41.75
2022-10-10T14:14:47.787Z,42.41
2022-10-10T14:17:17.971Z,42.56
2022-10-10T14:19:49.592Z,42.20
2022-10-10T14:22:19.164Z,42.60
2022-10-10T14:24:50.309Z,43.13
2022-10-10T14:27:27.976Z,42.58
2022-10-10T14:29:59.269Z,41.78
2022-10-10T14:32:28.608Z,40.59
2022-10-10T14:34:57.953Z,40.76
2022-10-10T14:37:30.861Z,40.85
2022-10-10T14:40:01.389Z,40.74
2022-10-10T14:42:30.662Z,39.49
2022-10-10T14:44:59.796Z,38.46
2022-10-10T14:47:28.927Z,38.28
2022-10-10T14:49:58.989Z,37.06
2022-10-10T14:52:28.102Z,37.14
2022-10-10T14:54:57.261Z,37.14
2022-10-10T14:57:27.933Z,37.40
2022-10-10T14:59:57.101Z,37.41
2022-10-10T15:02:26.646Z,37.87
2022-10-10T15:04:56.097Z,38.41
2022-10-10T15:07:25.268Z,38.94
2022-10-10T15:10:27.847Z,39.44
2022-10-10T15:12:46.403Z,39.83
2022-10-10T15:15:16.385Z,39.64
2022-10-10T15:17:45.785Z,39.04
2022-10-10T15:20:15.116Z,38.38
2022-10-10T15:22:46.141Z,38.54
2022-10-10T15:25:15.337Z,37.65
2022-10-10T15:27:45.896Z,38.09
2022-10-10T15:30:15.482Z,38.03
2022-10-10T15:32:44.670Z,38.59
2022-10-10T15:35:16.901Z,38.49
2022-10-10T15:37:47.510Z,38.60
2022-10-10T15:40:19.824Z,39.30
2022-10-10T15:42:51.083Z,39.44
2022-10-10T15:45:44.100Z,39.74
2022-10-10T15:48:10.579Z,39.92
2022-10-10T15:50:43.862Z,40.84
2022-10-10T15:53:13.611Z,41.41
2022-10-10T15:55:44.232Z,42.49
2022-10-10T15:58:16.001Z,42.82
2022-10-10T16:00:45.930Z,43.53
2022-10-10T16:03:15.594Z,44.60
2022-10-10T16:05:44.997Z,44.85
2022-10-10T16:08:14.224Z,45.16
2022-10-10T16:10:45.024Z,45.80
2022-10-10T16:13:15.817Z,46.37
2022-10-10T16:15:45.111Z,46.50
2022-10-10T16:18:14.246Z,46.83
2022-10-10T16:20:44.299Z,46.37
2022-10-10T16:23:13.532Z,47.07
2022-10-10T16:25:42.703Z,46.90
2022-10-10T16:28:12.006Z,47.03
2022-10-10T16:30:42.576Z,47.33
2022-10-10T16:33:11.885Z,47.47
2022-10-10T16:35:41.037Z,47.47
2022-10-10T16:38:10.188Z,47.59
2022-10-10T16:40:39.969Z,47.49
2022-10-10T16:43:09.321Z,47.71
2022-10-10T16:45:44.587Z,47.51
2022-10-10T16:48:14.215Z,47.84
2022-10-10T16:50:44.076Z,47.87
2022-10-10T16:53:13.213Z,48.66
2022-10-10T16:55:43.256Z,48.77
2022-10-10T16:58:12.428Z,48.93
2022-10-10T17:00:44.909Z,49.40
2022-10-10T17:03:14.165Z,49.66
2022-10-10T17:05:44.795Z,50.36
2022-10-10T17:08:14.365Z,50.06
2022-10-10T17:10:45.203Z,50.20
2022-10-10T17:13:14.581Z,50.48
2022-10-10T17:15:45.134Z,51.33
2022-10-10T17:18:14.313Z,51.44
2022-10-10T17:20:43.492Z,51.62
2022-10-10T17:23:12.779Z,52.05
2022-10-10T17:25:43.306Z,52.50
2022-10-10T17:28:13.247Z,52.88
2022-10-10T17:30:46.284Z,52.66
2022-10-10T17:33:17.707Z,52.96
2022-10-10T17:35:50.565Z,53.18
2022-10-10T17:38:38.476Z,53.08
2022-10-10T17:41:10.231Z,53.26
2022-10-10T17:43:39.730Z,53.46
2022-10-10T17:46:33.642Z,53.25
2022-10-10T17:49:05.013Z,53.56
2022-10-10T17:51:35.040Z,53.70
2022-10-10T17:54:06.610Z,53.70
2022-10-10T17:56:36.385Z,54.02
2022-10-10T17:59:06.892Z,54.18
2022-10-10T18:01:38.593Z,54.66
2022-10-10T18:04:08.098Z,54.87
2022-10-10T18:06:38.949Z,55.42
2022-10-10T18:09:08.631Z,55.43
2022-10-10T18:11:37.880Z,55.57
2022-10-10T18:14:07.135Z,56.20
2022-10-10T18:16:38.193Z,56.33
2022-10-10T18:19:09.077Z,56.31
2022-10-10T18:21:38.271Z,56.18
2022-10-10T18:24:08.332Z,56.69
2022-10-10T18:26:37.545Z,57.65
2022-10-10T18:29:06.669Z,57.63
2022-10-10T18:31:39.149Z,57.25
2022-10-10T18:34:09.050Z,57.64
2022-10-10T18:36:42.399Z,57.85
2022-10-10T18:39:16.657Z,58.11
2022-10-10T18:41:46.299Z,58.05
2022-10-10T18:44:17.942Z,58.07
2022-10-10T18:46:50.384Z,58.51
2022-10-10T18:49:19.644Z,58.12
2022-10-10T18:51:49.083Z,58.91
2022-10-10T18:54:20.209Z,58.73
2022-10-10T18:56:49.739Z,58.79
2022-10-10T18:59:22.329Z,58.72
2022-10-10T19:01:53.063Z,59.02
2022-10-10T19:04:22.855Z,59.89
2022-10-10T19:06:57.067Z,59.15
2022-10-10T19:09:27.252Z,59.51
2022-10-10T19:11:56.528Z,59.56
2022-10-10T19:14:25.745Z,59.39
2022-10-10T19:16:56.445Z,59.63
2022-10-10T19:19:25.845Z,59.67
2022-10-10T19:21:55.099Z,60.08
2022-10-10T19:24:24.477Z,60.51
2022-10-10T19:26:57.131Z,60.49
2022-10-10T19:29:27.194Z,60.55
2022-10-10T19:31:57.914Z,60.22
2022-10-10T19:34:27.155Z,60.61
2022-10-10T19:36:56.708Z,60.45
2022-10-10T19:39:25.906Z,60.53
2022-10-10T19:41:55.199Z,60.51
2022-10-10T19:44:24.577Z,60.52
2022-10-10T19:46:57.090Z,60.63
2022-10-10T19:49:26.665Z,60.74
2022-10-10T19:51:55.816Z,60.60
2022-10-10T19:54:25.004Z,60.53
2022-10-10T19:56:54.193Z,60.53
2022-10-10T19:59:23.547Z,60.51
2022-10-10T20:01:53.023Z,61.26
2022-10-10T20:04:23.775Z,60.87
2022-10-10T20:06:53.420Z,60.89
2022-10-10T20:09:24.540Z,61.08
2022-10-10T20:11:53.944Z,61.27
2022-10-10T20:14:23.290Z,61.45
2022-10-10T20:16:52.735Z,61.34
2022-10-10T20:19:23.782Z,61.35
2022-10-10T20:21:53.468Z,61.28
2022-10-10T20:24:22.925Z,61.38
2022-10-10T20:26:52.116Z,61.84
2022-10-10T20:29:21.449Z,62.35
2022-10-10T20:31:50.872Z,61.95
2022-10-10T20:34:20.084Z,63.16
2022-10-10T20:36:50.942Z,62.83
2022-10-10T20:39:20.138Z,63.26
2022-10-10T20:41:49.494Z,63.33
2022-10-10T20:44:18.904Z,63.59
2022-10-10T20:46:48.498Z,63.36
2022-10-10T20:49:20.878Z,63.54
2022-10-10T20:51:52.220Z,63.47
2022-10-10T20:54:24.619Z,63.56
2022-10-10T20:56:54.025Z,63.29
2022-10-10T20:59:24.667Z,63.58
2022-10-10T21:01:53.955Z,63.68
2022-10-10T21:04:23.165Z,63.81
2022-10-10T21:06:53.730Z,63.53
2022-10-10T21:09:22.934Z,63.47
2022-10-10T21:11:52.312Z,63.52
2022-10-10T21:14:21.650Z,63.02
2022-10-10T21:16:51.508Z,63.37
2022-10-10T21:19:20.814Z,63.06
2022-10-10T21:21:50.207Z,63.04
2022-10-10T21:24:20.784Z,63.63
2022-10-10T21:26:50.798Z,63.41
2022-10-10T21:29:19.980Z,63.90
2022-10-10T21:31:49.211Z,63.49
2022-10-10T21:34:19.160Z,63.79
2022-10-10T21:36:48.330Z,63.96
2022-10-10T21:39:17.519Z,64.13
2022-10-10T21:41:48.078Z,64.15
2022-10-10T21:44:17.274Z,64.46
2022-10-10T21:46:46.487Z,64.70
2022-10-10T21:49:15.830Z,64.71
2022-10-10T21:51:46.651Z,65.01
2022-10-10T21:54:16.206Z,65.42
2022-10-10T21:56:45.537Z,65.27
2022-10-10T21:59:16.532Z,65.56
2022-10-10T22:01:45.732Z,65.33
2022-10-10T22:04:15.278Z,65.62
2022-10-10T22:06:44.801Z,65.80
2022-10-10T22:09:14.003Z,65.44
2022-10-10T22:11:43.205Z,65.52
2022-10-10T22:14:12.333Z,65.54
2022-10-10T22:16:42.878Z,65.74
2022-10-10T22:19:12.148Z,65.61
2022-10-10T22:21:41.505Z,65.62
2022-10-10T22:24:10.835Z,65.45
2022-10-10T22:26:41.696Z,65.28
2022-10-10T22:29:10.852Z,65.75
2022-10-10T22:31:40.295Z,65.50
2022-10-10T22:34:11.089Z,65.55
2022-10-10T22:36:40.980Z,65.52
2022-10-10T22:39:11.198Z,65.63
2022-10-10T22:41:40.373Z,65.58
2022-10-10T22:44:10.482Z,65.39
2022-10-10T22:46:39.655Z,65.74
2022-10-10T22:49:10.171Z,65.50
2022-10-10T22:51:39.613Z,65.65
2022-10-10T22:54:08.721Z,65.65
2022-10-10T22:56:37.929Z,65.76
2022-10-10T22:59:07.069Z,65.47
2022-10-10T23:01:37.302Z,65.68
2022-10-10T23:04:10.336Z,65.98
2022-10-10T23:06:41.525Z,66.07
2022-10-10T23:09:13.252Z,65.84
2022-10-10T23:11:42.586Z,65.71
2022-10-10T23:14:11.924Z,65.49
2022-10-10T23:16:41.112Z,65.29
2022-10-10T23:19:10.269Z,65.17
2022-10-10T23:21:40.826Z,65.31
2022-10-10T23:24:10.065Z,65.50
2022-10-10T23:26:39.193Z,65.63
2022-10-10T23:29:09.967Z,65.29
2022-10-10T23:31:39.208Z,65.62
2022-10-10T23:34:08.410Z,65.36
2022-10-10T23:36:37.846Z,65.51
2022-10-10T23:39:10.049Z,65.66
2022-10-10T23:41:39.428Z,65.56
2022-10-10T23:44:08.623Z,65.56
2022-10-10T23:46:37.879Z,65.60
2022-10-10T23:49:07.050Z,65.34
2022-10-10T23:51:36.218Z,65.49
2022-10-10T23:54:05.577Z,65.48
2022-10-10T23:56:36.172Z,65.40
2022-10-10T23:59:05.466Z,65.50
